createdAt,value
2019-05-23T00:00:27.750Z,11.90
2019-05-23T00:03:38.786Z,11.90
2019-05-23T00:06:44.991Z,11.80
2019-05-23T00:09:51.590Z,11.80
2019-05-23T00:13:00.584Z,11.80
2019-05-23T00:16:06.485Z,11.70
2019-05-23T00:19:14.384Z,11.60
2019-05-23T00:22:20.301Z,11.60
2019-05-23T00:25:25.480Z,11.60
2019-05-23T00:28:31.824Z,11.60
2019-05-23T00:31:41.374Z,11.60
2019-05-23T00:34:47.110Z,11.60
2019-05-23T00:37:52.897Z,11.60
2019-05-23T00:40:59.678Z,11.60
2019-05-23T00:44:05.230Z,11.60
2019-05-23T00:47:10.969Z,11.60
2019-05-23T00:50:20.779Z,11.50
2019-05-23T00:53:26.193Z,11.50
2019-05-23T00:56:31.542Z,11.50
2019-05-23T00:59:36.941Z,11.40
2019-05-23T01:02:43.063Z,11.40
2019-05-23T01:05:48.410Z,11.30
2019-05-23T01:08:54.169Z,11.30
2019-05-23T01:11:59.216Z,11.20
2019-05-23T01:15:05.773Z,11.20
2019-05-23T01:18:11.696Z,11.20
2019-05-23T01:21:26.484Z,11.20
2019-05-23T01:24:47.449Z,11.10
2019-05-23T01:27:53.036Z,11.10
2019-05-23T01:31:00.222Z,11.00
2019-05-23T01:34:06.953Z,11.00
2019-05-23T01:37:13.936Z,11.00
2019-05-23T01:40:20.723Z,10.90
2019-05-23T01:43:26.239Z,10.90
2019-05-23T01:46:31.538Z,10.90
2019-05-23T01:49:36.929Z,10.90
2019-05-23T01:52:42.497Z,10.80
2019-05-23T01:55:47.700Z,10.80
2019-05-23T01:58:53.090Z,10.70
2019-05-23T02:01:58.244Z,10.70
2019-05-23T02:05:04.710Z,10.70
2019-05-23T02:08:13.587Z,10.70
2019-05-23T02:11:21.236Z,10.70
2019-05-23T02:14:27.306Z,10.60
2019-05-23T02:17:34.393Z,10.60
2019-05-23T02:20:39.413Z,10.60
2019-05-23T02:23:45.685Z,10.50
2019-05-23T02:26:50.885Z,10.50
2019-05-23T02:29:56.200Z,10.50
2019-05-23T02:33:02.291Z,10.40
2019-05-23T02:36:08.627Z,10.30
2019-05-23T02:39:34.421Z,10.40
2019-05-23T02:42:47.349Z,10.30
2019-05-23T02:45:55.817Z,10.30
2019-05-23T02:49:04.228Z,10.30
2019-05-23T02:52:34.707Z,10.30
2019-05-23T02:55:40.600Z,10.30
2019-05-23T02:59:04.622Z,10.20
2019-05-23T03:02:56.116Z,10.10
2019-05-23T03:06:06.730Z,10.10
2019-05-23T03:09:12.557Z,10.10
2019-05-23T03:12:18.519Z,10.00
2019-05-23T03:15:24.979Z,10.00
2019-05-23T03:18:34.579Z,10.00
2019-05-23T03:21:38.957Z,10.00
2019-05-23T03:24:44.152Z,10.00
2019-05-23T03:27:50.513Z,10.00
2019-05-23T03:31:25.387Z,9.90
2019-05-23T03:34:07.919Z,9.90
2019-05-23T03:37:15.291Z,9.90
2019-05-23T03:40:21.260Z,9.80
2019-05-23T03:43:26.584Z,9.90
2019-05-23T03:46:34.531Z,9.90
2019-05-23T03:49:39.915Z,9.90
2019-05-23T03:52:46.065Z,9.80
2019-05-23T03:55:53.737Z,9.70
2019-05-23T03:59:02.238Z,9.60
2019-05-23T04:02:09.181Z,9.60
2019-05-23T04:05:14.983Z,9.60
2019-05-23T04:08:20.791Z,9.60
2019-05-23T04:11:26.137Z,9.70
2019-05-23T04:14:31.261Z,9.70
2019-05-23T04:17:36.209Z,9.70
2019-05-23T04:20:41.377Z,9.80
2019-05-23T04:23:46.330Z,9.80
2019-05-23T04:26:51.595Z,9.80
2019-05-23T04:29:56.871Z,9.80
2019-05-23T04:33:04.118Z,9.80
2019-05-23T04:36:10.301Z,9.80
2019-05-23T04:39:15.389Z,9.90
2019-05-23T04:42:21.399Z,10.00
2019-05-23T04:45:27.763Z,10.00
2019-05-23T04:48:33.018Z,10.10
2019-05-23T04:51:38.665Z,10.10
2019-05-23T04:54:44.363Z,10.10
2019-05-23T04:57:49.841Z,10.20
2019-05-23T05:00:55.886Z,10.10
2019-05-23T05:04:02.305Z,10.10
2019-05-23T05:07:07.610Z,10.20
2019-05-23T05:10:17.112Z,10.20
2019-05-23T05:13:22.319Z,10.40
2019-05-23T05:16:27.462Z,10.70
2019-05-23T05:19:32.956Z,10.80
2019-05-23T05:22:42.219Z,10.90
2019-05-23T05:25:47.333Z,11.00
2019-05-23T05:28:54.890Z,11.10
2019-05-23T05:32:03.740Z,11.30
2019-05-23T05:35:09.186Z,11.40
2019-05-23T05:38:15.364Z,11.50
2019-05-23T05:41:21.138Z,11.50
2019-05-23T05:44:28.445Z,11.60
2019-05-23T05:47:34.242Z,11.60
2019-05-23T05:50:39.934Z,11.60
2019-05-23T05:53:44.971Z,11.70
2019-05-23T05:56:50.509Z,11.80
2019-05-23T05:59:55.651Z,11.90
2019-05-23T06:03:05.214Z,11.90
2019-05-23T06:06:26.503Z,12.00
2019-05-23T06:09:33.034Z,12.10
2019-05-23T06:12:40.669Z,12.20
2019-05-23T06:15:48.790Z,12.30
2019-05-23T06:18:54.897Z,12.40
2019-05-23T06:22:04.338Z,12.50
2019-05-23T06:25:10.230Z,12.60
2019-05-23T06:28:16.661Z,12.70
2019-05-23T06:31:22.464Z,12.80
2019-05-23T06:34:30.225Z,12.90
2019-05-23T06:37:36.265Z,13.00
2019-05-23T06:40:41.929Z,13.20
2019-05-23T06:43:47.155Z,13.30
2019-05-23T06:46:52.336Z,13.40
2019-05-23T06:49:59.427Z,13.50
2019-05-23T06:53:05.072Z,13.60
2019-05-23T06:56:12.221Z,13.70
2019-05-23T06:59:17.449Z,13.80
2019-05-23T07:02:31.211Z,13.90
2019-05-23T07:05:37.455Z,14.10
2019-05-23T07:08:42.561Z,14.20
2019-05-23T07:11:54.719Z,14.20
2019-05-23T07:14:59.771Z,14.30
2019-05-23T07:18:07.088Z,14.40
2019-05-23T07:21:12.725Z,14.50
2019-05-23T07:24:19.962Z,14.60
2019-05-23T07:27:27.474Z,14.70
2019-05-23T07:30:32.739Z,14.80
2019-05-23T07:33:38.197Z,15.00
2019-05-23T07:36:43.608Z,15.10
2019-05-23T07:39:50.894Z,15.30
2019-05-23T07:42:56.575Z,15.40
2019-05-23T07:46:03.244Z,15.50
2019-05-23T07:49:08.257Z,15.60
2019-05-23T07:52:17.455Z,15.70
2019-05-23T07:55:29.369Z,15.80
2019-05-23T07:58:34.658Z,15.90
2019-05-23T08:01:43.064Z,16.00
2019-05-23T08:04:48.506Z,16.10
2019-05-23T08:07:53.970Z,16.20
2019-05-23T08:10:59.111Z,16.20
2019-05-23T08:14:06.180Z,16.30
2019-05-23T08:17:11.675Z,16.50
2019-05-23T08:20:19.148Z,16.60
2019-05-23T08:23:24.369Z,16.90
2019-05-23T08:26:31.241Z,17.10
2019-05-23T08:29:38.863Z,17.30
2019-05-23T08:32:44.456Z,17.40
2019-05-23T08:35:49.750Z,17.40
2019-05-23T08:38:55.434Z,17.30
2019-05-23T08:42:01.741Z,17.10
2019-05-23T08:45:08.921Z,16.90
2019-05-23T08:48:17.739Z,16.70
2019-05-23T08:51:22.753Z,16.70
2019-05-23T08:54:28.703Z,16.80
2019-05-23T08:57:35.142Z,17.00
2019-05-23T09:00:41.396Z,17.20
2019-05-23T09:03:47.654Z,17.40
2019-05-23T09:06:52.841Z,17.40
2019-05-23T09:09:59.626Z,17.50
2019-05-23T09:13:04.785Z,17.60
2019-05-23T09:16:11.475Z,17.70
2019-05-23T09:19:16.568Z,17.70
2019-05-23T09:22:22.036Z,17.80
2019-05-23T09:25:27.065Z,17.80
2019-05-23T09:28:33.038Z,17.80
2019-05-23T09:31:39.242Z,17.80
2019-05-23T09:34:46.170Z,17.90
2019-05-23T09:37:51.263Z,17.90
2019-05-23T09:40:56.365Z,17.90
2019-05-23T09:44:01.413Z,18.10
2019-05-23T09:47:06.611Z,18.20
2019-05-23T09:50:15.960Z,18.20
2019-05-23T09:53:21.338Z,18.30
2019-05-23T09:56:28.917Z,18.30
2019-05-23T09:59:34.034Z,18.40
2019-05-23T10:02:40.337Z,18.50
2019-05-23T10:05:45.986Z,18.50
2019-05-23T10:08:51.636Z,18.50
2019-05-23T10:11:58.360Z,18.40
2019-05-23T10:15:03.634Z,18.30
2019-05-23T10:18:10.850Z,18.30
2019-05-23T10:21:15.972Z,18.30
2019-05-23T10:24:22.745Z,18.40
2019-05-23T10:27:27.884Z,18.50
2019-05-23T10:30:33.643Z,18.60
2019-05-23T10:33:38.750Z,18.70
2019-05-23T10:36:45.686Z,18.70
2019-05-23T10:39:54.648Z,18.80
2019-05-23T10:43:00.066Z,18.80
2019-05-23T10:46:06.657Z,18.90
2019-05-23T10:49:12.161Z,18.90
2019-05-23T10:52:18.279Z,19.00
2019-05-23T10:55:23.404Z,19.10
2019-05-23T10:58:29.299Z,19.30
2019-05-23T11:01:34.882Z,19.30
2019-05-23T11:04:40.414Z,19.50
2019-05-23T11:07:45.562Z,19.60
2019-05-23T11:10:51.247Z,19.50
2019-05-23T11:13:56.950Z,19.30
2019-05-23T11:17:02.474Z,19.00
2019-05-23T11:20:10.253Z,18.80
2019-05-23T11:23:25.301Z,18.70
2019-05-23T11:26:30.630Z,18.70
2019-05-23T11:29:35.714Z,18.90
2019-05-23T11:32:42.783Z,19.00
2019-05-23T11:35:48.163Z,19.10
2019-05-23T11:38:54.086Z,19.20
2019-05-23T11:41:59.166Z,19.40
2019-05-23T11:45:08.038Z,19.50
2019-05-23T11:48:16.175Z,19.70
2019-05-23T11:51:25.165Z,19.80
2019-05-23T11:54:29.112Z,19.80
2019-05-23T11:57:37.553Z,19.90
2019-05-23T12:01:21.424Z,20.00
2019-05-23T12:04:33.863Z,20.20
2019-05-23T12:07:39.839Z,20.40
2019-05-23T12:10:47.275Z,20.40
2019-05-23T12:13:52.575Z,20.50
2019-05-23T12:16:58.551Z,20.60
2019-05-23T12:20:04.515Z,20.70
2019-05-23T12:23:11.611Z,20.80
2019-05-23T12:26:16.699Z,20.90
2019-05-23T12:29:22.207Z,20.90
2019-05-23T12:32:27.121Z,20.70
2019-05-23T12:35:34.085Z,20.60
2019-05-23T12:38:39.285Z,20.70
2019-05-23T12:41:45.014Z,20.80
2019-05-23T12:44:49.956Z,20.90
2019-05-23T12:48:01.437Z,21.10
2019-05-23T12:51:07.106Z,21.00
2019-05-23T12:54:12.293Z,20.90
2019-05-23T12:57:18.575Z,20.70
2019-05-23T13:00:31.021Z,20.60
2019-05-23T13:03:36.698Z,20.60
2019-05-23T13:06:41.868Z,20.50
2019-05-23T13:09:47.680Z,20.40
2019-05-23T13:12:53.965Z,20.50
2019-05-23T13:15:59.099Z,20.40
2019-05-23T13:19:04.580Z,20.40
2019-05-23T13:22:11.343Z,20.50
2019-05-23T13:25:16.866Z,20.80
2019-05-23T13:28:22.024Z,21.10
2019-05-23T13:31:27.471Z,21.20
2019-05-23T13:34:32.550Z,21.10
2019-05-23T13:37:52.455Z,21.10
2019-05-23T13:40:45.390Z,21.20
2019-05-23T13:43:52.618Z,21.40
2019-05-23T13:46:57.636Z,21.60
2019-05-23T13:50:03.146Z,21.80
2019-05-23T13:53:09.423Z,22.00
2019-05-23T13:56:16.473Z,22.20
2019-05-23T13:59:21.826Z,22.40
2019-05-23T14:02:26.921Z,22.50
2019-05-23T14:05:32.196Z,22.50
2019-05-23T14:08:37.378Z,22.70
2019-05-23T14:11:45.923Z,22.90
2019-05-23T14:14:50.917Z,23.10
2019-05-23T14:17:57.114Z,23.10
2019-05-23T14:21:02.309Z,23.10
2019-05-23T14:24:10.714Z,23.20
2019-05-23T14:27:33.338Z,23.40
2019-05-23T14:30:45.718Z,23.60
2019-05-23T14:34:08.307Z,23.90
2019-05-23T14:37:20.085Z,24.20
2019-05-23T14:40:26.567Z,24.50
2019-05-23T14:43:31.749Z,24.60
2019-05-23T14:46:46.278Z,24.60
2019-05-23T14:50:11.722Z,24.60
2019-05-23T14:53:19.484Z,24.60
2019-05-23T14:56:25.998Z,24.70
2019-05-23T14:59:36.586Z,24.50
2019-05-23T15:02:42.868Z,24.10
2019-05-23T15:05:49.618Z,23.90
2019-05-23T15:09:01.863Z,24.00
2019-05-23T15:12:07.246Z,24.20
2019-05-23T15:15:13.177Z,24.40
2019-05-23T15:18:18.270Z,24.30
2019-05-23T15:21:23.797Z,24.30
2019-05-23T15:24:28.944Z,24.30
2019-05-23T15:27:34.493Z,24.40
2019-05-23T15:30:39.506Z,24.50
2019-05-23T15:33:45.403Z,24.60
2019-05-23T15:36:50.554Z,24.70
2019-05-23T15:39:56.082Z,24.80
2019-05-23T15:43:01.153Z,24.90
2019-05-23T15:46:08.157Z,24.80
2019-05-23T15:49:14.252Z,24.90
2019-05-23T15:52:30.229Z,25.10
2019-05-23T15:55:44.858Z,25.10
2019-05-23T15:59:07.387Z,25.20
2019-05-23T16:02:18.814Z,25.30
2019-05-23T16:05:25.253Z,25.00
2019-05-23T16:08:31.668Z,24.60
2019-05-23T16:11:36.626Z,24.30
2019-05-23T16:14:42.562Z,24.00
2019-05-23T16:17:47.637Z,24.00
2019-05-23T16:20:54.538Z,24.00
2019-05-23T16:24:02.229Z,24.00
2019-05-23T16:27:08.016Z,23.80
2019-05-23T16:30:13.906Z,23.50
2019-05-23T16:33:19.053Z,23.20
2019-05-23T16:36:24.683Z,22.90
2019-05-23T16:39:45.858Z,22.70
2019-05-23T16:42:37.017Z,22.50
2019-05-23T16:45:42.565Z,22.30
2019-05-23T16:48:48.163Z,22.10
2019-05-23T16:51:53.351Z,22.00
2019-05-23T16:54:59.712Z,21.90
2019-05-23T16:58:12.060Z,21.80
2019-05-23T17:01:33.903Z,21.70
2019-05-23T17:05:09.050Z,21.60
2019-05-23T17:08:21.431Z,21.50
2019-05-23T17:11:38.770Z,21.50
2019-05-23T17:14:52.374Z,21.40
2019-05-23T17:18:18.297Z,21.30
2019-05-23T17:21:37.950Z,21.20
2019-05-23T17:24:51.101Z,21.20
2019-05-23T17:28:11.202Z,21.10
2019-05-23T17:31:18.286Z,21.00
2019-05-23T17:34:23.238Z,21.00
2019-05-23T17:37:28.842Z,21.00
2019-05-23T17:40:34.303Z,20.90
2019-05-23T17:43:39.427Z,20.80
2019-05-23T17:46:44.697Z,20.70
2019-05-23T17:49:49.656Z,20.50
2019-05-23T17:52:54.697Z,20.50
2019-05-23T17:55:59.886Z,20.40
2019-05-23T17:59:05.277Z,20.50
2019-05-23T18:02:11.948Z,20.50
2019-05-23T18:05:17.345Z,20.50
2019-05-23T18:08:23.338Z,20.40
2019-05-23T18:11:29.170Z,20.40
2019-05-23T18:14:34.623Z,20.30
2019-05-23T18:17:40.202Z,20.20
2019-05-23T18:20:45.750Z,20.20
2019-05-23T18:23:52.617Z,20.10
2019-05-23T18:26:57.662Z,20.10
2019-05-23T18:30:04.509Z,20.00
2019-05-23T18:33:10.501Z,20.00
2019-05-23T18:36:16.026Z,19.90
2019-05-23T18:39:22.841Z,19.80
2019-05-23T18:42:27.961Z,19.80
2019-05-23T18:45:34.643Z,19.70
2019-05-23T18:48:39.601Z,19.60
2019-05-23T18:51:44.707Z,19.50
2019-05-23T18:54:49.721Z,19.50
2019-05-23T18:57:55.018Z,19.40
2019-05-23T19:01:16.534Z,19.30
2019-05-23T19:04:21.628Z,19.20
2019-05-23T19:07:27.196Z,19.20
2019-05-23T19:10:32.417Z,19.10
2019-05-23T19:13:37.596Z,19.00
2019-05-23T19:16:42.728Z,18.90
2019-05-23T19:19:48.109Z,18.90
2019-05-23T19:22:53.368Z,18.80
2019-05-23T19:25:58.521Z,18.70
2019-05-23T19:29:04.360Z,18.70
2019-05-23T19:32:10.934Z,18.60
2019-05-23T19:35:16.119Z,18.50
2019-05-23T19:38:21.392Z,18.50
2019-05-23T19:41:37.473Z,18.40
2019-05-23T19:44:36.306Z,18.30
2019-05-23T19:47:41.500Z,18.20
2019-05-23T19:50:46.526Z,18.10
2019-05-23T19:53:51.989Z,18.10
2019-05-23T19:56:57.117Z,18.00
2019-05-23T20:00:02.453Z,17.90
2019-05-23T20:03:09.298Z,17.80
2019-05-23T20:06:16.165Z,17.70
2019-05-23T20:09:23.546Z,17.60
2019-05-23T20:12:29.056Z,17.60
2019-05-23T20:15:36.422Z,17.50
2019-05-23T20:18:41.807Z,17.40
2019-05-23T20:21:46.937Z,17.30
2019-05-23T20:24:51.953Z,17.30
2019-05-23T20:27:57.031Z,17.20
2019-05-23T20:31:04.006Z,17.20
2019-05-23T20:34:09.200Z,17.10
2019-05-23T20:37:14.537Z,17.00
2019-05-23T20:40:20.210Z,17.00
2019-05-23T20:43:26.771Z,17.00
2019-05-23T20:46:31.997Z,16.90
2019-05-23T20:49:37.145Z,16.80
2019-05-23T20:52:42.233Z,16.80
2019-05-23T20:55:47.200Z,16.70
2019-05-23T20:58:52.141Z,16.70
2019-05-23T21:01:57.400Z,16.60
2019-05-23T21:05:02.518Z,16.60
2019-05-23T21:08:07.828Z,16.50
2019-05-23T21:11:12.846Z,16.40
2019-05-23T21:14:18.278Z,16.40
2019-05-23T21:17:24.225Z,16.30
2019-05-23T21:20:29.365Z,16.30
2019-05-23T21:23:35.513Z,16.20
2019-05-23T21:26:40.800Z,16.20
2019-05-23T21:29:45.760Z,16.10
2019-05-23T21:32:50.878Z,16.00
2019-05-23T21:35:55.911Z,16.00
2019-05-23T21:39:00.998Z,15.90
2019-05-23T21:42:06.079Z,15.90
2019-05-23T21:45:11.193Z,15.90
2019-05-23T21:48:17.382Z,15.80
2019-05-23T21:51:23.020Z,15.80
2019-05-23T21:54:28.150Z,15.70
2019-05-23T21:57:33.088Z,15.70
2019-05-23T22:01:21.455Z,15.60
2019-05-23T22:04:41.164Z,15.50
2019-05-23T22:07:46.501Z,15.40
2019-05-23T22:10:51.791Z,15.40
2019-05-23T22:13:57.084Z,15.30
2019-05-23T22:17:02.886Z,15.20
2019-05-23T22:20:08.285Z,15.10
2019-05-23T22:23:13.781Z,15.10
2019-05-23T22:26:19.069Z,15.00
2019-05-23T22:29:24.691Z,15.00
2019-05-23T22:32:31.370Z,15.10
2019-05-23T22:35:36.330Z,15.10
2019-05-23T22:38:41.401Z,15.00
2019-05-23T22:41:46.426Z,15.00
2019-05-23T22:44:51.887Z,14.90
2019-05-23T22:47:56.901Z,14.80
2019-05-23T22:51:01.929Z,14.80
2019-05-23T22:54:07.488Z,14.70
2019-05-23T22:57:12.501Z,14.60
2019-05-23T23:00:22.329Z,14.50
2019-05-23T23:03:27.407Z,14.50
2019-05-23T23:06:32.729Z,14.50
2019-05-23T23:09:37.857Z,14.50
2019-05-23T23:12:42.797Z,14.40
2019-05-23T23:15:47.824Z,14.30
2019-05-23T23:18:52.846Z,14.30
2019-05-23T23:21:58.253Z,14.20
2019-05-23T23:25:03.361Z,14.20
2019-05-23T23:28:08.384Z,14.10
2019-05-23T23:31:13.416Z,14.10
2019-05-23T23:34:18.579Z,14.10
2019-05-23T23:37:23.669Z,14.10
2019-05-23T23:40:28.872Z,14.10
2019-05-23T23:43:34.006Z,14.10
2019-05-23T23:46:57.194Z,14.10
2019-05-23T23:50:20.008Z,14.00
2019-05-23T23:53:42.704Z,14.00
2019-05-23T23:57:05.556Z,14.00
